sensor_id;sensor_type;location;lat;lon;timestamp;temperature;humidity
3778;DHT22;1904;50.076;8.660;2024-03-02T00:00:29;4.10;1.00
3778;DHT22;1904;50.076;8.660;2024-03-02T00:02:55;4.10;1.00
3778;DHT22;1904;50.076;8.660;2024-03-02T00:08:24;4.10;1.00
3778;DHT22;1904;50.076;8.660;2024-03-02T00:17:14;4.00;1.00
3778;DHT22;1904;50.076;8.660;2024-03-02T00:31:28;4.00;4.30
3778;DHT22;1904;50.076;8.660;2024-03-02T00:34:04;4.00;7.80
3778;DHT22;1904;50.076;8.660;2024-03-02T00:39:34;4.00;10.50
3778;DHT22;1904;50.076;8.660;2024-03-02T00:44:52;3.90;9.80
3778;DHT22;1904;50.076;8.660;2024-03-02T00:47:17;3.90;7.10
3778;DHT22;1904;50.076;8.660;2024-03-02T00:55:46;3.80;3.10
3778;DHT22;1904;50.076;8.660;2024-03-02T01:01:16;3.70;1.00
3778;DHT22;1904;50.076;8.660;2024-03-02T01:12:51;3.40;7.40
3778;DHT22;1904;50.076;8.660;2024-03-02T01:18:19;3.30;7.70
3778;DHT22;1904;50.076;8.660;2024-03-02T01:20:46;3.30;13.20
3778;DHT22;1904;50.076;8.660;2024-03-02T01:26:15;3.40;14.70
3778;DHT22;1904;50.076;8.660;2024-03-02T01:28:41;3.40;16.90
3778;DHT22;1904;50.076;8.660;2024-03-02T01:46:22;3.60;22.40
3778;DHT22;1904;50.076;8.660;2024-03-02T01:51:50;3.60;25.30
3778;DHT22;1904;50.076;8.660;2024-03-02T02:00:21;3.60;20.20
3778;DHT22;1904;50.076;8.660;2024-03-02T02:05:49;3.40;12.70
3778;DHT22;1904;50.076;8.660;2024-03-02T02:08:16;3.50;13.00
3778;DHT22;1904;50.076;8.660;2024-03-02T02:23:04;3.20;9.90
3778;DHT22;1904;50.076;8.660;2024-03-02T02:28:41;3.20;11.90
3778;DHT22;1904;50.076;8.660;2024-03-02T02:31:22;3.10;12.00
3778;DHT22;1904;50.076;8.660;2024-03-02T02:33:58;3.10;12.40
3778;DHT22;1904;50.076;8.660;2024-03-02T02:36:24;3.00;11.70
3778;DHT22;1904;50.076;8.660;2024-03-02T02:38:52;3.00;11.20
3778;DHT22;1904;50.076;8.660;2024-03-02T02:41:18;2.90;10.70
3778;DHT22;1904;50.076;8.660;2024-03-02T02:43:52;2.90;10.60
3778;DHT22;1904;50.076;8.660;2024-03-02T02:46:22;2.70;5.90
3778;DHT22;1904;50.076;8.660;2024-03-02T02:57:46;2.70;9.80
3778;DHT22;1904;50.076;8.660;2024-03-02T03:00:16;2.70;12.40
3778;DHT22;1904;50.076;8.660;2024-03-02T03:02:52;2.70;11.40
3778;DHT22;1904;50.076;8.660;2024-03-02T03:11:34;2.70;13.70
3778;DHT22;1904;50.076;8.660;2024-03-02T03:17:03;2.70;17.30
3778;DHT22;1904;50.076;8.660;2024-03-02T03:22:31;2.60;20.40
3778;DHT22;1904;50.076;8.660;2024-03-02T03:25:00;2.70;19.70
3778;DHT22;1904;50.076;8.660;2024-03-02T03:33:34;2.70;20.10
3778;DHT22;1904;50.076;8.660;2024-03-02T03:48:06;2.50;13.80
3778;DHT22;1904;50.076;8.660;2024-03-02T03:53:35;2.50;15.80
3778;DHT22;1904;50.076;8.660;2024-03-02T03:56:04;2.50;16.00
3778;DHT22;1904;50.076;8.660;2024-03-02T04:07:23;2.40;17.20
3778;DHT22;1904;50.076;8.660;2024-03-02T04:18:57;2.30;17.70
3778;DHT22;1904;50.076;8.660;2024-03-02T04:21:34;2.40;22.50
3778;DHT22;1904;50.076;8.660;2024-03-02T04:24:04;2.40;24.40
3778;DHT22;1904;50.076;8.660;2024-03-02T04:26:34;2.40;23.80
3778;DHT22;1904;50.076;8.660;2024-03-02T04:29:00;2.40;21.00
3778;DHT22;1904;50.076;8.660;2024-03-02T04:37:40;2.60;23.10
3778;DHT22;1904;50.076;8.660;2024-03-02T04:40:10;2.70;20.50
3778;DHT22;1904;50.076;8.660;2024-03-02T04:48:34;2.60;19.40
3778;DHT22;1904;50.076;8.660;2024-03-02T04:51:10;2.60;19.60
3778;DHT22;1904;50.076;8.660;2024-03-02T04:56:39;2.60;18.80
3778;DHT22;1904;50.076;8.660;2024-03-02T05:05:04;2.40;17.90
3778;DHT22;1904;50.076;8.660;2024-03-02T05:07:34;2.50;19.50
3778;DHT22;1904;50.076;8.660;2024-03-02T05:10:00;2.50;21.90
3778;DHT22;1904;50.076;8.660;2024-03-02T05:12:34;2.40;23.50
3778;DHT22;1904;50.076;8.660;2024-03-02T05:15:09;2.40;24.80
3778;DHT22;1904;50.076;8.660;2024-03-02T05:17:35;2.40;24.80
3778;DHT22;1904;50.076;8.660;2024-03-02T05:23:04;2.40;24.30
3778;DHT22;1904;50.076;8.660;2024-03-02T05:25:40;2.30;22.40
3778;DHT22;1904;50.076;8.660;2024-03-02T05:31:04;2.20;23.50
3778;DHT22;1904;50.076;8.660;2024-03-02T05:33:34;2.20;24.90
3778;DHT22;1904;50.076;8.660;2024-03-02T05:39:10;2.20;25.60
3778;DHT22;1904;50.076;8.660;2024-03-02T05:41:40;2.20;22.10
3778;DHT22;1904;50.076;8.660;2024-03-02T05:44:06;2.20;24.40
3778;DHT22;1904;50.076;8.660;2024-03-02T05:46:31;2.00;23.10
3778;DHT22;1904;50.076;8.660;2024-03-02T05:48:57;2.00;25.80
3778;DHT22;1904;50.076;8.660;2024-03-02T05:51:34;2.00;23.30
3778;DHT22;1904;50.076;8.660;2024-03-02T05:54:16;2.00;22.60
3778;DHT22;1904;50.076;8.660;2024-03-02T05:59:45;2.00;22.60
3778;DHT22;1904;50.076;8.660;2024-03-02T06:05:22;2.20;36.30
3778;DHT22;1904;50.076;8.660;2024-03-02T06:07:52;2.20;36.30
3778;DHT22;1904;50.076;8.660;2024-03-02T06:10:34;2.40;33.30
3778;DHT22;1904;50.076;8.660;2024-03-02T06:13:10;2.40;33.30
3778;DHT22;1904;50.076;8.660;2024-03-02T06:15:40;2.50;33.40
3778;DHT22;1904;50.076;8.660;2024-03-02T06:24:22;2.70;28.30
3778;DHT22;1904;50.076;8.660;2024-03-02T06:27:05;2.80;28.80
3778;DHT22;1904;50.076;8.660;2024-03-02T06:35:22;3.00;27.60
3778;DHT22;1904;50.076;8.660;2024-03-02T06:37:58;3.20;24.90
3778;DHT22;1904;50.076;8.660;2024-03-02T06:40:34;3.10;27.40
3778;DHT22;1904;50.076;8.660;2024-03-02T06:48:52;3.40;20.30
3778;DHT22;1904;50.076;8.660;2024-03-02T06:51:34;3.40;13.60
3778;DHT22;1904;50.076;8.660;2024-03-02T06:54:00;3.40;16.50
3778;DHT22;1904;50.076;8.660;2024-03-02T06:56:40;3.50;14.90
3778;DHT22;1904;50.076;8.660;2024-03-02T07:05:04;3.50;6.20
3778;DHT22;1904;50.076;8.660;2024-03-02T07:13:34;3.30;2.30
3778;DHT22;1904;50.076;8.660;2024-03-02T07:19:03;3.10;8.00
3778;DHT22;1904;50.076;8.660;2024-03-02T07:35:59;3.10;12.00
3778;DHT22;1904;50.076;8.660;2024-03-02T07:38:34;3.20;14.70
3778;DHT22;1904;50.076;8.660;2024-03-02T07:41:00;3.30;10.90
3778;DHT22;1904;50.076;8.660;2024-03-02T07:49:34;3.30;10.80
3778;DHT22;1904;50.076;8.660;2024-03-02T07:52:04;3.40;9.90
3778;DHT22;1904;50.076;8.660;2024-03-02T08:00:33;3.40;15.70
3778;DHT22;1904;50.076;8.660;2024-03-02T08:09:04;4.00;34.60
3778;DHT22;1904;50.076;8.660;2024-03-02T08:11:34;4.10;38.00
3778;DHT22;1904;50.076;8.660;2024-03-02T08:17:04;4.60;38.40
3778;DHT22;1904;50.076;8.660;2024-03-02T08:19:46;4.90;38.50
3778;DHT22;1904;50.076;8.660;2024-03-02T08:28:10;6.00;39.40
3778;DHT22;1904;50.076;8.660;2024-03-02T08:30:46;6.30;39.70
3778;DHT22;1904;50.076;8.660;2024-03-02T08:33:12;6.60;40.00
3778;DHT22;1904;50.076;8.660;2024-03-02T08:35:52;7.00;37.10
3778;DHT22;1904;50.076;8.660;2024-03-02T08:38:34;7.40;37.50
3778;DHT22;1904;50.076;8.660;2024-03-02T08:44:10;8.00;24.00
3778;DHT22;1904;50.076;8.660;2024-03-02T08:52:22;8.60;18.70
3778;DHT22;1904;50.076;8.660;2024-03-02T08:55:04;8.90;1.00
3778;DHT22;1904;50.076;8.660;2024-03-02T08:57:46;8.90;1.00
3778;DHT22;1904;50.076;8.660;2024-03-02T09:00:12;9.10;1.00
3778;DHT22;1904;50.076;8.660;2024-03-02T09:02:38;9.20;1.00
3778;DHT22;1904;50.076;8.660;2024-03-02T09:05:04;9.40;1.00
3778;DHT22;1904;50.076;8.660;2024-03-02T09:07:30;9.60;1.00
3778;DHT22;1904;50.076;8.660;2024-03-02T09:16:04;10.20;1.00
3778;DHT22;1904;50.076;8.660;2024-03-02T09:18:34;10.40;1.00
3778;DHT22;1904;50.076;8.660;2024-03-02T09:21:04;10.70;1.00
3778;DHT22;1904;50.076;8.660;2024-03-02T09:23:30;11.10;1.00
3778;DHT22;1904;50.076;8.660;2024-03-02T09:26:10;11.10;1.00
3778;DHT22;1904;50.076;8.660;2024-03-02T09:37:34;11.90;1.00
3778;DHT22;1904;50.076;8.660;2024-03-02T09:52:04;12.40;1.00
3778;DHT22;1904;50.076;8.660;2024-03-02T09:54:34;12.40;1.00
3778;DHT22;1904;50.076;8.660;2024-03-02T09:59:58;12.40;1.00
3778;DHT22;1904;50.076;8.660;2024-03-02T10:05:28;12.50;1.00
3778;DHT22;1904;50.076;8.660;2024-03-02T10:08:00;12.60;1.00
3778;DHT22;1904;50.076;8.660;2024-03-02T10:10:37;12.70;1.00
3778;DHT22;1904;50.076;8.660;2024-03-02T10:13:16;12.80;1.00
3778;DHT22;1904;50.076;8.660;2024-03-02T10:18:52;13.10;1.00
3778;DHT22;1904;50.076;8.660;2024-03-02T10:21:22;13.30;1.00
3778;DHT22;1904;50.076;8.660;2024-03-02T10:24:06;13.40;1.00
3778;DHT22;1904;50.076;8.660;2024-03-02T10:26:34;13.20;1.00
3778;DHT22;1904;50.076;8.660;2024-03-02T10:29:00;13.10;1.00
3778;DHT22;1904;50.076;8.660;2024-03-02T10:31:26;13.20;1.00
3778;DHT22;1904;50.076;8.660;2024-03-02T10:36:43;13.40;1.00
3778;DHT22;1904;50.076;8.660;2024-03-02T10:42:05;13.60;1.00
3778;DHT22;1904;50.076;8.660;2024-03-02T10:44:35;13.70;1.00
3778;DHT22;1904;50.076;8.660;2024-03-02T10:47:05;13.70;1.00
3778;DHT22;1904;50.076;8.660;2024-03-02T10:49:34;13.80;1.00
3778;DHT22;1904;50.076;8.660;2024-03-02T10:52:10;13.90;1.00
3778;DHT22;1904;50.076;8.660;2024-03-02T10:58:13;14.00;1.00
3778;DHT22;1904;50.076;8.660;2024-03-02T11:00:23;14.00;1.00
3778;DHT22;1904;50.076;8.660;2024-03-02T11:03:05;14.10;1.00
3778;DHT22;1904;50.076;8.660;2024-03-02T11:05:38;14.10;1.00
3778;DHT22;1904;50.076;8.660;2024-03-02T11:08:08;14.00;1.00
3778;DHT22;1904;50.076;8.660;2024-03-02T11:22:10;13.80;1.00
3778;DHT22;1904;50.076;8.660;2024-03-02T11:24:47;13.80;1.00
3778;DHT22;1904;50.076;8.660;2024-03-02T11:38:40;14.30;1.00
3778;DHT22;1904;50.076;8.660;2024-03-02T11:41:10;14.40;1.00
3778;DHT22;1904;50.076;8.660;2024-03-02T11:43:41;14.40;1.00
3778;DHT22;1904;50.076;8.660;2024-03-02T11:49:06;14.30;1.00
3778;DHT22;1904;50.076;8.660;2024-03-02T11:51:50;14.40;1.00
3778;DHT22;1904;50.076;8.660;2024-03-02T12:03:09;14.50;1.00
3778;DHT22;1904;50.076;8.660;2024-03-02T12:05:35;14.50;1.00
3778;DHT22;1904;50.076;8.660;2024-03-02T12:11:04;14.50;1.00
3778;DHT22;1904;50.076;8.660;2024-03-02T12:13:41;14.60;1.00
3778;DHT22;1904;50.076;8.660;2024-03-02T12:16:10;14.70;1.00
3778;DHT22;1904;50.076;8.660;2024-03-02T12:21:53;14.80;1.00
3778;DHT22;1904;50.076;8.660;2024-03-02T12:24:20;15.10;1.00
3778;DHT22;1904;50.076;8.660;2024-03-02T12:29:40;15.30;1.00
3778;DHT22;1904;50.076;8.660;2024-03-02T12:41:11;15.40;1.00
3778;DHT22;1904;50.076;8.660;2024-03-02T12:43:40;15.30;1.00
3778;DHT22;1904;50.076;8.660;2024-03-02T12:46:11;15.30;1.00
3778;DHT22;1904;50.076;8.660;2024-03-02T12:48:40;15.40;1.00
3778;DHT22;1904;50.076;8.660;2024-03-02T12:51:06;15.30;1.00
3778;DHT22;1904;50.076;8.660;2024-03-02T12:53:32;15.30;1.00
3778;DHT22;1904;50.076;8.660;2024-03-02T12:56:11;15.30;1.00
3778;DHT22;1904;50.076;8.660;2024-03-02T12:58:40;15.40;1.00
3778;DHT22;1904;50.076;8.660;2024-03-02T13:01:10;15.40;1.00
3778;DHT22;1904;50.076;8.660;2024-03-02T13:03:41;15.40;1.00
3778;DHT22;1904;50.076;8.660;2024-03-02T13:06:06;15.30;1.00
3778;DHT22;1904;50.076;8.660;2024-03-02T13:08:41;15.30;1.00
3778;DHT22;1904;50.076;8.660;2024-03-02T13:11:06;15.40;1.00
3778;DHT22;1904;50.076;8.660;2024-03-02T13:13:35;15.40;1.00
3778;DHT22;1904;50.076;8.660;2024-03-02T13:16:11;15.60;1.00
3778;DHT22;1904;50.076;8.660;2024-03-02T13:18:40;15.70;1.00
3778;DHT22;1904;50.076;8.660;2024-03-02T13:26:35;15.90;1.00
3778;DHT22;1904;50.076;8.660;2024-03-02T13:29:11;16.00;1.00
3778;DHT22;1904;50.076;8.660;2024-03-02T13:31:40;16.10;1.00
3778;DHT22;1904;50.076;8.660;2024-03-02T13:34:06;16.20;1.00
3778;DHT22;1904;50.076;8.660;2024-03-02T13:36:41;16.40;1.00
3778;DHT22;1904;50.076;8.660;2024-03-02T13:39:17;16.50;1.00
3778;DHT22;1904;50.076;8.660;2024-03-02T13:44:43;16.70;1.00
3778;DHT22;1904;50.076;8.660;2024-03-02T13:47:09;16.90;1.00
3778;DHT22;1904;50.076;8.660;2024-03-02T13:49:41;17.10;1.00
3778;DHT22;1904;50.076;8.660;2024-03-02T13:52:11;17.20;1.00
3778;DHT22;1904;50.076;8.660;2024-03-02T13:57:41;17.40;1.00
3778;DHT22;1904;50.076;8.660;2024-03-02T14:00:10;17.80;1.00
3778;DHT22;1904;50.076;8.660;2024-03-02T14:02:41;17.80;1.00
3778;DHT22;1904;50.076;8.660;2024-03-02T14:05:11;18.00;1.00
3778;DHT22;1904;50.076;8.660;2024-03-02T14:10:35;18.00;1.00
3778;DHT22;1904;50.076;8.660;2024-03-02T14:13:11;18.10;1.00
3778;DHT22;1904;50.076;8.660;2024-03-02T14:15:41;18.20;1.00
3778;DHT22;1904;50.076;8.660;2024-03-02T14:18:22;18.40;1.00
3778;DHT22;1904;50.076;8.660;2024-03-02T14:20:59;18.40;1.00
3778;DHT22;1904;50.076;8.660;2024-03-02T14:23:24;18.40;1.00
3778;DHT22;1904;50.076;8.660;2024-03-02T14:25:51;18.50;1.00
3778;DHT22;1904;50.076;8.660;2024-03-02T14:28:17;18.40;1.00
3778;DHT22;1904;50.076;8.660;2024-03-02T14:30:44;18.40;1.00
3778;DHT22;1904;50.076;8.660;2024-03-02T14:33:10;18.40;1.00
3778;DHT22;1904;50.076;8.660;2024-03-02T14:35:41;18.40;1.00
3778;DHT22;1904;50.076;8.660;2024-03-02T14:38:13;18.40;1.00
3778;DHT22;1904;50.076;8.660;2024-03-02T14:40:41;18.40;1.00
3778;DHT22;1904;50.076;8.660;2024-03-02T14:43:06;18.30;1.00
3778;DHT22;1904;50.076;8.660;2024-03-02T14:45:32;18.30;1.00
3778;DHT22;1904;50.076;8.660;2024-03-02T14:47:58;18.50;1.00
3778;DHT22;1904;50.076;8.660;2024-03-02T14:50:27;18.60;1.00
3778;DHT22;1904;50.076;8.660;2024-03-02T14:52:53;18.50;1.00
3778;DHT22;1904;50.076;8.660;2024-03-02T14:55:18;18.60;1.00
3778;DHT22;1904;50.076;8.660;2024-03-02T15:00:35;18.60;1.00
3778;DHT22;1904;50.076;8.660;2024-03-02T15:03:11;18.40;1.00
3778;DHT22;1904;50.076;8.660;2024-03-02T15:05:41;17.70;1.00
3778;DHT22;1904;50.076;8.660;2024-03-02T15:08:11;17.70;1.00
3778;DHT22;1904;50.076;8.660;2024-03-02T15:10:41;17.60;1.00
3778;DHT22;1904;50.076;8.660;2024-03-02T15:13:06;17.60;1.00
3778;DHT22;1904;50.076;8.660;2024-03-02T15:15:32;17.40;1.00
3778;DHT22;1904;50.076;8.660;2024-03-02T15:17:57;17.30;1.00
3778;DHT22;1904;50.076;8.660;2024-03-02T15:20:23;17.20;1.00
3778;DHT22;1904;50.076;8.660;2024-03-02T15:22:49;17.20;1.00
3778;DHT22;1904;50.076;8.660;2024-03-02T15:25:14;17.20;1.00
3778;DHT22;1904;50.076;8.660;2024-03-02T15:27:41;17.20;1.00
3778;DHT22;1904;50.076;8.660;2024-03-02T15:30:07;17.20;1.00
3778;DHT22;1904;50.076;8.660;2024-03-02T15:32:33;17.20;1.00
3778;DHT22;1904;50.076;8.660;2024-03-02T15:35:05;17.20;1.00
3778;DHT22;1904;50.076;8.660;2024-03-02T15:37:35;17.20;1.00
3778;DHT22;1904;50.076;8.660;2024-03-02T15:40:05;17.30;1.00
3778;DHT22;1904;50.076;8.660;2024-03-02T15:42:35;17.10;1.00
3778;DHT22;1904;50.076;8.660;2024-03-02T15:45:05;17.10;1.00
3778;DHT22;1904;50.076;8.660;2024-03-02T15:47:41;17.20;1.00
3778;DHT22;1904;50.076;8.660;2024-03-02T15:53:11;17.90;1.00
3778;DHT22;1904;50.076;8.660;2024-03-02T15:55:41;18.40;1.00
3778;DHT22;1904;50.076;8.660;2024-03-02T15:58:11;18.60;1.00
3778;DHT22;1904;50.076;8.660;2024-03-02T16:00:41;18.60;1.00
3778;DHT22;1904;50.076;8.660;2024-03-02T16:06:11;18.10;1.00
3778;DHT22;1904;50.076;8.660;2024-03-02T16:08:41;17.90;1.00
3778;DHT22;1904;50.076;8.660;2024-03-02T16:11:11;17.60;1.00
3778;DHT22;1904;50.076;8.660;2024-03-02T16:13:41;17.20;1.00
3778;DHT22;1904;50.076;8.660;2024-03-02T16:16:11;17.10;1.00
3778;DHT22;1904;50.076;8.660;2024-03-02T16:21:41;16.60;1.00
3778;DHT22;1904;50.076;8.660;2024-03-02T16:24:11;16.40;1.00
3778;DHT22;1904;50.076;8.660;2024-03-02T16:26:41;16.10;1.00
3778;DHT22;1904;50.076;8.660;2024-03-02T16:32:06;15.80;1.00
3778;DHT22;1904;50.076;8.660;2024-03-02T16:34:41;15.50;1.00
3778;DHT22;1904;50.076;8.660;2024-03-02T16:37:11;15.40;1.00
3778;DHT22;1904;50.076;8.660;2024-03-02T16:39:41;15.20;1.00
3778;DHT22;1904;50.076;8.660;2024-03-02T16:42:11;15.00;1.00
3778;DHT22;1904;50.076;8.660;2024-03-02T16:44:41;14.80;1.00
3778;DHT22;1904;50.076;8.660;2024-03-02T16:47:17;14.60;1.00
3778;DHT22;1904;50.076;8.660;2024-03-02T16:49:53;14.50;1.00
3778;DHT22;1904;50.076;8.660;2024-03-02T16:52:29;14.20;1.00
3778;DHT22;1904;50.076;8.660;2024-03-02T16:55:11;14.10;1.00
3778;DHT22;1904;50.076;8.660;2024-03-02T16:57:41;13.80;1.00
3778;DHT22;1904;50.076;8.660;2024-03-02T17:00:23;13.80;1.00
3778;DHT22;1904;50.076;8.660;2024-03-02T17:05:47;13.30;1.00
3778;DHT22;1904;50.076;8.660;2024-03-02T17:08:23;13.30;1.00
3778;DHT22;1904;50.076;8.660;2024-03-02T17:11:05;13.10;1.00
3778;DHT22;1904;50.076;8.660;2024-03-02T17:13:41;12.90;1.00
3778;DHT22;1904;50.076;8.660;2024-03-02T17:16:11;12.70;1.00
3778;DHT22;1904;50.076;8.660;2024-03-02T17:18:41;12.60;1.00
3778;DHT22;1904;50.076;8.660;2024-03-02T17:21:11;12.30;1.00
3778;DHT22;1904;50.076;8.660;2024-03-02T17:23:36;12.30;1.00
3778;DHT22;1904;50.076;8.660;2024-03-02T17:26:05;12.10;1.00
3778;DHT22;1904;50.076;8.660;2024-03-02T17:28:35;11.90;1.00
3778;DHT22;1904;50.076;8.660;2024-03-02T17:31:11;11.70;1.00
3778;DHT22;1904;50.076;8.660;2024-03-02T17:33:41;11.60;1.00
3778;DHT22;1904;50.076;8.660;2024-03-02T17:36:11;11.50;1.00
3778;DHT22;1904;50.076;8.660;2024-03-02T17:38:39;11.40;1.00
3778;DHT22;1904;50.076;8.660;2024-03-02T17:41:04;11.30;1.00
3778;DHT22;1904;50.076;8.660;2024-03-02T17:43:35;11.10;1.00
3778;DHT22;1904;50.076;8.660;2024-03-02T17:46:01;11.00;1.00
3778;DHT22;1904;50.076;8.660;2024-03-02T17:48:27;10.90;1.00
3778;DHT22;1904;50.076;8.660;2024-03-02T17:50:52;13.90;1.00
3778;DHT22;1904;50.076;8.660;2024-03-02T17:53:19;10.80;1.00
3778;DHT22;1904;50.076;8.660;2024-03-02T17:55:45;10.70;1.00
3778;DHT22;1904;50.076;8.660;2024-03-02T17:58:11;10.60;1.00
3778;DHT22;1904;50.076;8.660;2024-03-02T18:00:37;10.60;1.00
3778;DHT22;1904;50.076;8.660;2024-03-02T18:03:03;10.50;1.00
3778;DHT22;1904;50.076;8.660;2024-03-02T18:05:29;10.40;1.00
3778;DHT22;1904;50.076;8.660;2024-03-02T18:07:59;10.40;1.00
3778;DHT22;1904;50.076;8.660;2024-03-02T18:10:25;10.40;1.00
3778;DHT22;1904;50.076;8.660;2024-03-02T18:12:59;10.30;1.00
3778;DHT22;1904;50.076;8.660;2024-03-02T18:15:25;10.30;1.00
3778;DHT22;1904;50.076;8.660;2024-03-02T18:17:53;10.30;1.00
3778;DHT22;1904;50.076;8.660;2024-03-02T18:20:19;10.40;1.00
3778;DHT22;1904;50.076;8.660;2024-03-02T18:22:47;10.30;1.00
3778;DHT22;1904;50.076;8.660;2024-03-02T18:25:23;10.40;1.00
3778;DHT22;1904;50.076;8.660;2024-03-02T18:27:49;10.40;1.00
3778;DHT22;1904;50.076;8.660;2024-03-02T18:30:15;10.50;1.00
3778;DHT22;1904;50.076;8.660;2024-03-02T18:32:40;10.60;1.00
3778;DHT22;1904;50.076;8.660;2024-03-02T18:35:07;10.60;1.00
3778;DHT22;1904;50.076;8.660;2024-03-02T18:37:36;10.70;1.00
3778;DHT22;1904;50.076;8.660;2024-03-02T18:40:05;10.70;1.00
3778;DHT22;1904;50.076;8.660;2024-03-02T18:45:23;10.90;1.00
3778;DHT22;1904;50.076;8.660;2024-03-02T18:50:51;11.00;1.00
3778;DHT22;1904;50.076;8.660;2024-03-02T18:53:17;11.00;1.00
3778;DHT22;1904;50.076;8.660;2024-03-02T18:55:43;11.10;1.00
3778;DHT22;1904;50.076;8.660;2024-03-02T18:58:11;11.20;1.00
3778;DHT22;1904;50.076;8.660;2024-03-02T19:03:33;11.20;1.00
3778;DHT22;1904;50.076;8.660;2024-03-02T19:05:59;11.30;1.00
3778;DHT22;1904;50.076;8.660;2024-03-02T19:08:29;11.30;1.00
3778;DHT22;1904;50.076;8.660;2024-03-02T19:10:57;11.30;1.00
3778;DHT22;1904;50.076;8.660;2024-03-02T19:13:22;11.30;1.00
3778;DHT22;1904;50.076;8.660;2024-03-02T19:15:51;11.30;1.00
3778;DHT22;1904;50.076;8.660;2024-03-02T19:24:19;11.40;1.00
3778;DHT22;1904;50.076;8.660;2024-03-02T19:26:45;11.40;1.00
3778;DHT22;1904;50.076;8.660;2024-03-02T19:29:29;11.40;1.00
3778;DHT22;1904;50.076;8.660;2024-03-02T19:37:48;11.30;1.00
3778;DHT22;1904;50.076;8.660;2024-03-02T19:43:23;11.20;1.00
3778;DHT22;1904;50.076;8.660;2024-03-02T19:45:49;11.20;1.00
3778;DHT22;1904;50.076;8.660;2024-03-02T19:57:10;10.90;1.00
3778;DHT22;1904;50.076;8.660;2024-03-02T19:59:41;10.80;1.00
3778;DHT22;1904;50.076;8.660;2024-03-02T20:02:07;10.80;1.00
3778;DHT22;1904;50.076;8.660;2024-03-02T20:13:23;10.40;1.00
3778;DHT22;1904;50.076;8.660;2024-03-02T20:16:08;10.40;1.00
3778;DHT22;1904;50.076;8.660;2024-03-02T20:18:35;10.40;1.00
3778;DHT22;1904;50.076;8.660;2024-03-02T20:21:17;10.30;1.00
3778;DHT22;1904;50.076;8.660;2024-03-02T20:35:35;9.80;1.00
3778;DHT22;1904;50.076;8.660;2024-03-02T20:38:11;9.60;1.00
3778;DHT22;1904;50.076;8.660;2024-03-02T20:40:41;9.60;1.00
3778;DHT22;1904;50.076;8.660;2024-03-02T21:04:05;8.80;1.00
3778;DHT22;1904;50.076;8.660;2024-03-02T21:06:47;8.70;1.00
3778;DHT22;1904;50.076;8.660;2024-03-02T21:12:23;8.50;1.00
3778;DHT22;1904;50.076;8.660;2024-03-02T21:14:49;8.40;1.00
3778;DHT22;1904;50.076;8.660;2024-03-02T21:20:35;8.30;1.00
3778;DHT22;1904;50.076;8.660;2024-03-02T21:23:05;8.30;1.00
3778;DHT22;1904;50.076;8.660;2024-03-02T21:25:36;8.30;1.00
3778;DHT22;1904;50.076;8.660;2024-03-02T21:28:05;8.20;1.00
3778;DHT22;1904;50.076;8.660;2024-03-02T21:30:41;8.10;1.00
3778;DHT22;1904;50.076;8.660;2024-03-02T21:33:17;8.10;1.00
3778;DHT22;1904;50.076;8.660;2024-03-02T21:35:47;8.00;1.00
3778;DHT22;1904;50.076;8.660;2024-03-02T21:41:16;7.90;1.00
3778;DHT22;1904;50.076;8.660;2024-03-02T21:43:59;7.90;1.00
3778;DHT22;1904;50.076;8.660;2024-03-02T21:46:29;7.80;1.00
3778;DHT22;1904;50.076;8.660;2024-03-02T21:48:59;7.80;1.00
3778;DHT22;1904;50.076;8.660;2024-03-02T21:51:41;7.80;1.00
3778;DHT22;1904;50.076;8.660;2024-03-02T21:57:17;7.80;1.00
3778;DHT22;1904;50.076;8.660;2024-03-02T22:05:31;7.80;1.00
3778;DHT22;1904;50.076;8.660;2024-03-02T22:08:05;7.80;1.00
3778;DHT22;1904;50.076;8.660;2024-03-02T22:10:35;7.80;1.00
3778;DHT22;1904;50.076;8.660;2024-03-02T22:16:05;7.90;1.00
3778;DHT22;1904;50.076;8.660;2024-03-02T22:24:35;7.90;1.00
3778;DHT22;1904;50.076;8.660;2024-03-02T22:36:06;7.80;1.00
3778;DHT22;1904;50.076;8.660;2024-03-02T22:41:35;7.70;1.00
3778;DHT22;1904;50.076;8.660;2024-03-02T22:44:05;7.60;1.00
3778;DHT22;1904;50.076;8.660;2024-03-02T22:46:47;7.60;1.00
3778;DHT22;1904;50.076;8.660;2024-03-02T22:57:35;7.40;1.00
3778;DHT22;1904;50.076;8.660;2024-03-02T23:00:01;7.30;1.00
3778;DHT22;1904;50.076;8.660;2024-03-02T23:05:35;7.20;1.00
3778;DHT22;1904;50.076;8.660;2024-03-02T23:08:05;7.10;1.00
3778;DHT22;1904;50.076;8.660;2024-03-02T23:10:35;7.10;1.00
3778;DHT22;1904;50.076;8.660;2024-03-02T23:13:05;6.90;1.00
3778;DHT22;1904;50.076;8.660;2024-03-02T23:15:35;6.90;1.00
3778;DHT22;1904;50.076;8.660;2024-03-02T23:18:11;6.90;1.00
3778;DHT22;1904;50.076;8.660;2024-03-02T23:20:41;6.80;1.00
3778;DHT22;1904;50.076;8.660;2024-03-02T23:23:11;6.80;1.00
3778;DHT22;1904;50.076;8.660;2024-03-02T23:25:47;6.70;1.00
3778;DHT22;1904;50.076;8.660;2024-03-02T23:28:13;6.70;1.00
3778;DHT22;1904;50.076;8.660;2024-03-02T23:30:41;6.60;1.00
3778;DHT22;1904;50.076;8.660;2024-03-02T23:33:11;6.60;1.00
3778;DHT22;1904;50.076;8.660;2024-03-02T23:38:35;6.50;1.00
3778;DHT22;1904;50.076;8.660;2024-03-02T23:41:05;6.50;1.00
3778;DHT22;1904;50.076;8.660;2024-03-02T23:43:36;6.50;1.00
3778;DHT22;1904;50.076;8.660;2024-03-02T23:46:05;6.50;1.00
3778;DHT22;1904;50.076;8.660;2024-03-02T23:48:35;6.40;1.00
3778;DHT22;1904;50.076;8.660;2024-03-02T23:56:53;6.40;1.00
3778;DHT22;1904;50.076;8.660;2024-03-02T23:59:19;6.40;1.00
